createdAt,value
2022-07-28T00:03:36.336Z,101250.59
2022-07-28T00:08:39.247Z,101242.44
2022-07-28T00:13:41.385Z,101240.28
2022-07-28T00:18:43.801Z,101240.06
2022-07-28T00:23:45.836Z,101245.84
2022-07-28T00:28:48.421Z,101234.22
2022-07-28T00:33:50.363Z,101235.81
2022-07-28T00:38:53.245Z,101232.00
2022-07-28T00:43:55.545Z,101234.97
2022-07-28T00:48:57.767Z,101219.94
2022-07-28T00:53:59.758Z,101231.03
2022-07-28T00:59:02.001Z,101235.44
2022-07-28T01:04:04.708Z,101236.19
2022-07-28T01:09:52.512Z,101218.34
2022-07-28T01:15:03.615Z,101218.56
2022-07-28T01:20:37.526Z,101223.47
2022-07-28T01:25:57.445Z,101220.38
2022-07-28T01:31:05.699Z,101214.66
2022-07-28T01:36:11.517Z,101211.13
2022-07-28T01:41:19.664Z,101209.41
2022-07-28T01:46:22.902Z,101203.91
2022-07-28T01:51:28.412Z,101207.47
2022-07-28T01:56:33.678Z,101203.16
2022-07-28T02:01:38.561Z,101194.63
2022-07-28T02:06:43.099Z,101192.28
2022-07-28T02:11:48.244Z,101201.09
2022-07-28T02:16:56.370Z,101195.94
2022-07-28T02:21:58.521Z,101192.03
2022-07-28T02:27:19.783Z,101187.31
2022-07-28T02:32:37.143Z,101172.19
2022-07-28T02:37:45.588Z,101166.66
2022-07-28T02:42:50.057Z,101159.16
2022-07-28T02:47:56.413Z,101159.66
2022-07-28T02:53:15.134Z,101160.50
2022-07-28T02:58:24.081Z,101152.56
2022-07-28T03:03:26.297Z,101165.88
2022-07-28T03:08:28.579Z,101163.19
2022-07-28T03:13:30.390Z,101160.44
2022-07-28T03:18:32.672Z,101160.44
2022-07-28T03:23:42.120Z,101165.88
2022-07-28T03:28:46.251Z,101163.81
2022-07-28T03:33:49.166Z,101174.88
2022-07-28T03:39:03.851Z,101179.94
2022-07-28T03:44:06.279Z,101173.06
2022-07-28T03:49:08.489Z,101172.22
2022-07-28T03:54:10.967Z,101157.91
2022-07-28T03:59:13.145Z,101166.22
2022-07-28T04:04:15.991Z,101165.47
2022-07-28T04:09:18.188Z,101163.63
2022-07-28T04:14:20.391Z,101158.16
2022-07-28T04:19:22.639Z,101155.94
2022-07-28T04:24:24.683Z,101156.81
2022-07-28T04:29:27.277Z,101150.47
2022-07-28T04:34:29.728Z,101148.13
2022-07-28T04:39:31.686Z,101147.31
2022-07-28T04:44:34.434Z,101146.91
2022-07-28T04:49:36.521Z,101159.38
2022-07-28T04:54:38.862Z,101157.16
2022-07-28T04:59:40.809Z,101158.16
2022-07-28T05:04:42.884Z,101165.00
2022-07-28T05:09:44.776Z,101163.81
2022-07-28T05:14:46.718Z,101166.84
2022-07-28T05:19:48.937Z,101156.09
2022-07-28T05:24:51.085Z,101160.72
2022-07-28T05:29:53.290Z,101160.47
2022-07-28T05:34:55.411Z,101162.81
2022-07-28T05:39:57.470Z,101166.09
2022-07-28T05:44:59.937Z,101160.09
2022-07-28T05:50:02.368Z,101163.06
2022-07-28T05:55:05.685Z,101156.19
2022-07-28T06:00:09.504Z,101168.03
2022-07-28T06:05:12.227Z,101167.69
2022-07-28T06:10:16.496Z,101158.88
2022-07-28T06:15:21.918Z,101164.63
2022-07-28T06:20:24.899Z,101162.03
2022-07-28T06:25:28.630Z,101158.16
2022-07-28T06:30:32.176Z,101163.97
2022-07-28T06:35:43.223Z,101161.69
2022-07-28T06:40:50.436Z,101162.28
2022-07-28T06:45:52.638Z,101165.00
2022-07-28T06:50:54.795Z,101170.38
2022-07-28T06:55:56.931Z,101171.94
2022-07-28T07:00:59.155Z,101163.06
2022-07-28T07:06:01.026Z,101163.06
2022-07-28T07:11:03.274Z,101165.50
2022-07-28T07:16:05.547Z,101170.03
2022-07-28T07:21:07.957Z,101165.13
2022-07-28T07:26:09.929Z,101159.97
2022-07-28T07:31:12.126Z,101146.44
2022-07-28T07:36:14.328Z,101152.28
2022-07-28T07:41:16.170Z,101147.75
2022-07-28T07:46:18.584Z,101143.25
2022-07-28T07:51:20.537Z,101134.38
2022-07-28T07:56:22.467Z,101127.09
2022-07-28T08:01:24.611Z,101126.03
2022-07-28T08:06:28.213Z,101139.13
2022-07-28T08:11:31.181Z,101141.47
2022-07-28T08:16:33.443Z,101136.09
2022-07-28T08:21:35.365Z,101136.63
2022-07-28T08:26:37.412Z,101146.41
2022-07-28T08:31:39.288Z,101143.56
2022-07-28T08:36:41.302Z,101145.72
2022-07-28T08:41:52.067Z,101128.75
2022-07-28T08:46:54.271Z,101112.31
2022-07-28T08:51:58.512Z,101113.53
2022-07-28T08:57:01.818Z,101106.78
2022-07-28T09:02:03.946Z,101108.75
2022-07-28T09:07:06.863Z,101109.25
2022-07-28T09:12:09.337Z,101099.72
2022-07-28T09:17:11.428Z,101110.00
2022-07-28T09:22:13.898Z,101097.03
2022-07-28T09:27:16.400Z,101099.34
2022-07-28T09:32:20.239Z,101098.41
2022-07-28T09:37:28.397Z,101096.06
2022-07-28T09:42:46.655Z,101081.72
2022-07-28T09:47:48.956Z,101071.97
2022-07-28T09:52:51.198Z,101072.34
2022-07-28T09:57:55.226Z,101075.78
2022-07-28T10:02:57.273Z,101062.72
2022-07-28T10:07:59.245Z,101074.03
2022-07-28T10:13:06.491Z,101069.41
2022-07-28T10:18:08.477Z,101065.50
2022-07-28T10:23:12.989Z,101058.03
2022-07-28T10:28:20.674Z,101060.47
2022-07-28T10:33:25.128Z,101055.34
2022-07-28T10:38:33.761Z,101060.59
2022-07-28T10:43:37.037Z,101058.66
2022-07-28T10:48:45.225Z,101052.41
2022-07-28T10:53:55.424Z,101049.63
2022-07-28T10:59:38.869Z,101051.41
2022-07-28T11:04:52.129Z,101052.50
2022-07-28T11:09:55.171Z,101039.81
2022-07-28T11:14:58.653Z,101040.16
2022-07-28T11:20:29.683Z,101027.47
2022-07-28T11:25:31.853Z,101025.38
2022-07-28T11:30:42.632Z,101023.91
2022-07-28T11:35:44.273Z,101018.28
2022-07-28T11:40:51.841Z,101015.81
2022-07-28T11:46:02.469Z,101011.19
2022-07-28T11:51:04.353Z,101006.53
2022-07-28T11:56:11.822Z,100992.72
2022-07-28T12:01:17.984Z,100987.13
2022-07-28T12:06:27.216Z,100988.09
2022-07-28T12:11:36.714Z,100984.47
2022-07-28T12:16:41.936Z,100985.44
2022-07-28T12:21:49.204Z,100976.69
2022-07-28T12:26:51.478Z,100981.16
2022-07-28T12:31:56.073Z,100981.91
2022-07-28T12:37:02.376Z,100978.25
2022-07-28T12:42:09.350Z,100972.59
2022-07-28T12:47:13.256Z,100968.06
2022-07-28T12:52:22.720Z,100971.66
2022-07-28T12:57:50.901Z,100966.28
2022-07-28T13:02:57.072Z,100965.56
2022-07-28T13:08:03.565Z,100973.13
2022-07-28T13:13:07.714Z,100969.91
2022-07-28T13:18:09.600Z,100970.34
2022-07-28T13:23:11.307Z,100963.13
2022-07-28T13:28:31.664Z,100957.94
2022-07-28T13:33:33.563Z,100953.00
2022-07-28T13:38:35.474Z,100955.88
2022-07-28T13:43:37.584Z,100952.06
2022-07-28T13:48:57.874Z,100951.59
2022-07-28T13:54:02.340Z,100945.91
2022-07-28T13:59:04.244Z,100940.31
2022-07-28T14:04:14.971Z,100939.97
2022-07-28T14:09:21.196Z,100934.88
2022-07-28T14:14:25.678Z,100934.47
2022-07-28T14:19:39.298Z,100932.19
2022-07-28T14:24:44.951Z,100939.31
2022-07-28T14:29:47.272Z,100922.56
2022-07-28T14:34:49.281Z,100922.19
2022-07-28T14:39:51.990Z,100920.78
2022-07-28T14:44:54.121Z,100916.06
2022-07-28T14:49:58.171Z,100922.91
2022-07-28T14:55:00.846Z,100906.47
2022-07-28T15:00:03.005Z,100907.47
2022-07-28T15:05:05.887Z,100906.66
2022-07-28T15:10:08.219Z,100904.56
2022-07-28T15:15:10.403Z,100901.72
2022-07-28T15:20:12.481Z,100893.44
2022-07-28T15:25:14.450Z,100897.06
2022-07-28T15:30:16.786Z,100906.53
2022-07-28T15:35:19.824Z,100897.84
2022-07-28T15:40:22.461Z,100901.34
2022-07-28T15:45:24.453Z,100904.38
2022-07-28T15:50:26.627Z,100901.97
2022-07-28T15:55:28.593Z,100899.22
2022-07-28T16:00:30.805Z,100902.75
2022-07-28T16:05:32.959Z,100901.34
2022-07-28T16:10:34.885Z,100901.44
2022-07-28T16:15:37.176Z,100897.84
2022-07-28T16:20:39.223Z,100893.22
2022-07-28T16:25:44.898Z,100888.56
2022-07-28T16:30:48.121Z,100890.25
2022-07-28T16:35:50.056Z,100888.03
2022-07-28T16:40:54.395Z,100889.88
2022-07-28T16:45:56.385Z,100884.03
2022-07-28T16:50:58.152Z,100884.53
2022-07-28T16:56:00.072Z,100878.47
2022-07-28T17:01:02.114Z,100883.44
2022-07-28T17:06:08.366Z,100889.13
2022-07-28T17:11:10.196Z,100880.38
2022-07-28T17:16:12.367Z,100881.91
2022-07-28T17:21:14.307Z,100880.25
2022-07-28T17:31:39.299Z,100874.44
2022-07-28T17:36:45.695Z,100870.16
2022-07-28T17:41:47.695Z,100867.88
2022-07-28T17:46:50.326Z,100881.56
2022-07-28T17:51:52.440Z,100883.84
2022-07-28T17:56:54.507Z,100876.72
2022-07-28T18:01:56.599Z,100868.75
2022-07-28T18:06:58.496Z,100882.66
2022-07-28T18:12:00.421Z,100875.81
2022-07-28T18:17:02.762Z,100876.97
2022-07-28T18:22:05.506Z,100878.56
2022-07-28T18:27:07.319Z,100871.59
2022-07-28T18:32:09.766Z,100879.16
2022-07-28T18:37:15.887Z,100881.53
2022-07-28T18:42:17.800Z,100895.19
2022-07-28T18:47:20.405Z,100894.56
2022-07-28T18:52:23.275Z,100898.41
2022-07-28T18:57:25.516Z,100895.88
2022-07-28T19:02:27.759Z,100895.88
2022-07-28T19:07:30.315Z,100889.41
2022-07-28T19:12:33.285Z,100894.31
2022-07-28T19:17:35.343Z,100899.75
2022-07-28T19:22:40.551Z,100900.78
2022-07-28T19:27:42.570Z,100913.38
2022-07-28T19:32:44.595Z,100913.19
2022-07-28T19:37:46.447Z,100919.28
2022-07-28T19:42:50.740Z,100929.47
2022-07-28T19:47:53.118Z,100936.09
2022-07-28T19:52:55.434Z,100940.72
2022-07-28T19:57:59.515Z,100942.09
2022-07-28T20:03:01.490Z,100946.94
2022-07-28T20:08:03.499Z,100951.81
2022-07-28T20:13:05.341Z,100957.56
2022-07-28T20:18:07.451Z,100954.28
2022-07-28T20:23:09.430Z,100955.75
2022-07-28T20:28:12.503Z,100955.22
2022-07-28T20:33:14.652Z,100956.53
2022-07-28T20:38:16.667Z,100958.66
2022-07-28T20:43:18.523Z,100960.69
2022-07-28T20:48:21.549Z,100957.97
2022-07-28T20:53:23.883Z,100964.69
2022-07-28T20:58:26.338Z,100948.34
2022-07-28T21:03:29.029Z,100952.13
2022-07-28T21:08:30.910Z,100950.03
2022-07-28T21:13:33.052Z,100960.81
2022-07-28T21:18:35.005Z,100948.22
2022-07-28T21:23:36.851Z,100947.97
2022-07-28T21:28:57.666Z,100950.91
2022-07-28T21:33:59.461Z,100949.44
2022-07-28T21:39:02.403Z,100961.66
2022-07-28T21:44:04.470Z,100963.72
2022-07-28T21:49:06.513Z,100965.22
2022-07-28T21:54:08.578Z,100962.53
2022-07-28T21:59:10.771Z,100958.97
2022-07-28T22:04:12.835Z,100959.47
2022-07-28T22:09:15.350Z,100956.19
2022-07-28T22:14:17.580Z,100960.94
2022-07-28T22:19:19.723Z,100956.06
2022-07-28T22:24:21.876Z,100957.03
2022-07-28T22:29:23.941Z,100954.47
2022-07-28T22:34:25.905Z,100953.50
2022-07-28T22:39:28.221Z,100959.72
2022-07-28T22:44:30.672Z,100954.97
2022-07-28T22:49:32.722Z,100958.63
2022-07-28T22:54:39.162Z,100954.13
2022-07-28T22:59:41.306Z,100954.22
2022-07-28T23:04:46.941Z,100945.44
2022-07-28T23:09:51.845Z,100944.69
2022-07-28T23:14:53.896Z,100943.38
2022-07-28T23:19:59.133Z,100939.78
2022-07-28T23:25:01.591Z,100944.09
2022-07-28T23:30:04.249Z,100944.31
2022-07-28T23:35:06.461Z,100932.97
2022-07-28T23:40:08.964Z,100927.44
2022-07-28T23:45:11.350Z,100933.09
2022-07-28T23:50:13.404Z,100924.03
2022-07-28T23:55:15.451Z,100922.22
